Nearby METAR Reports

 

KIKK - Kankakee, Illinois, USA
Distance from station: S 7mi, 12km
Updated: Wed, 20-Jun-2018 12:55am CDT
Overcast
Overcast
 Wind from WSW
Wind: WSW 5 mph , 7 km/h
Temperature: 72°F , 22°C
Dew Point: 72°F , 22°C
Humidity: 100%
Barometer: 29.89 inHg , 1012.2 hPa
Clouds: Overcast
Visibility: 10 miles , 16 km
Cloud details: Overcast 900 ft
2018/06/20 05:55 KIKK 200555Z AUTO 25004KT 10SM OVC009 22/22 A2989 RMK AO2 60001 T02200215 10241 20213 403210205
KIGQ - Chicago/Lansing, Illinois, USA
Distance from station: NNE 29mi, 47km
Updated: Wed, 20-Jun-2018 12:55am CDT
Overcast
Overcast
 Wind from calm
Wind: Calm
Temperature: 68°F , 20°C
Dew Point: 68°F , 20°C
Humidity: 100%
Barometer: 29.89 inHg , 1012.2 hPa
Clouds: Overcast
Visibility: 7 miles , 11 km
Cloud details: Overcast 1100 ft
2018/06/20 05:55 KIGQ 200555Z AUTO 00000KT 7SM OVC011 20/20 A2989 RMK AO2 T01960196 10200 20189 402740180
 
KJOT - Joliet, Illinois, USA
Distance from station: NW 30mi, 48km
Updated: Wed, 20-Jun-2018 12:55am CDT
Overcast
Overcast
 Wind from calm
Wind: Calm
Temperature: 70°F , 21°C
Dew Point: 70°F , 21°C
Humidity: 100%
Barometer: 29.90 inHg , 1012.5 hPa
Clouds: Overcast
Visibility: 7 miles , 11 km
Cloud details: Overcast 1400 ft
2018/06/20 05:55 KJOT 200555Z AUTO 00000KT 7SM OVC014 21/21 A2990 RMK AO2 60003 T02120206 10246 20210 403050206
KLOT - Romeoville/Chi, Illinois, USA
Distance from station: NNW 34mi, 55km
Updated: Wed, 20-Jun-2018 12:50am CDT
Overcast
Overcast
 Wind from N
Wind: N 6 mph , 9 km/h
Temperature: 68°F , 20°C
Dew Point: 66°F , 19°C
Humidity: 94%
Barometer: 29.89 inHg , 1012.2 hPa
Clouds: Overcast
Visibility: 10 miles , 16 km
Cloud details: Overcast 1400 ft
2018/06/20 05:50 KLOT 200550Z AUTO 36005KT 10SM OVC014 20/19 A2989 RMK AO2 60003 T02000186 10235 20196 402920190
 
KC09 - Morris-Washburn, Illinois, USA
Distance from station: WNW 36mi, 58km
Updated: Wed, 20-Jun-2018 12:55am CDT
Mist, Overcast
Mist, Overcast
 Wind from calm
Wind: Calm
Temperature: 70°F , 21°C
Dew Point: 68°F , 20°C
Humidity: 94%
Barometer: 29.89 inHg , 1012.2 hPa
Summary: Mist
Clouds: Overcast
Visibility: 3 miles , 5 km
Cloud details: Overcast 1600 ft
2018/06/20 05:55 KC09 200555Z AUTO 00000KT 3SM BR OVC016 21/20 A2989 RMK AO2 60009 T02100204 10237 20210 403040205
KRZL - Rensselaer, Indiana, USA
Distance from station: ESE 37mi, 59km
Updated: Wed, 20-Jun-2018 12:55am CDT
Overcast
Overcast
 Wind from SW
Wind: SW 6 mph , 9 km/h
Barometer: 29.89 inHg , 1012.2 hPa
Clouds: Overcast
Visibility: 10 miles , 16 km
Cloud details: Overcast 600 ft
2018/06/20 05:55 KRZL 200555Z AUTO 23005KT 10SM OVC006 A2989 RMK AO2
 
KGYY - Gary Regional, Indiana, USA
Distance from station: NE 37mi, 60km
Updated: Wed, 20-Jun-2018 12:55am CDT
Mostly cloudy
Mostly cloudy
 Wind from NNW
Wind: NNW 3 mph , 6 km/h
Temperature: 66°F , 19°C
Dew Point: 64°F , 18°C
Humidity: 94%
Barometer: 29.89 inHg , 1012.2 hPa
Clouds: Mostly cloudy
Visibility: 10 miles , 16 km
Cloud details: Mostly cloudy 900 ft
Mostly cloudy 2500 ft
2018/06/20 05:55 KGYY 200555Z AUTO 34003KT 10SM BKN009 BKN025 19/18 A2989 RMK AO2 T01900180 10200 20185
KMDW - Chicago, Illinois, USA
Distance from station: N 42mi, 68km
Updated: Wed, 20-Jun-2018 12:53am CDT
Overcast
Overcast
 Wind from NW
Wind: NW 7 mph , 11 km/h
Temperature: 66°F , 19°C
Dew Point: 63°F , 17°C
Humidity: 88%
Barometer: 29.89 inHg , 1012.2 hPa
Clouds: Overcast
Visibility: 10 miles , 16 km
Cloud details: Overcast 1100 ft
2018/06/20 05:53 KMDW 200553Z 32006KT 10SM OVC011 19/17 A2989 RMK AO2 SLP112 60001 T01890167 10222 20189 402890189 53002
 
KPNT - Pontiac, Illinois, USA
Distance from station: WSW 46mi, 74km
Updated: Wed, 20-Jun-2018 12:55am CDT
Partly cloudy
Partly cloudy
 Wind from W
Wind: W 3 mph , 6 km/h
Temperature: 72°F , 22°C
Dew Point: 72°F , 22°C
Humidity: 100%
Barometer: 29.90 inHg , 1012.5 hPa
Clouds: Partly cloudy
Visibility: 10 miles , 16 km
Cloud details: Partly cloudy 2100 ft
2018/06/20 05:55 KPNT 200555Z AUTO 28003KT 10SM SCT021 22/22 A2990 RMK AO2 T02230220 10230 20223
KVPZ - Valparaiso, Indiana, USA
Distance from station: ENE 47mi, 75km
Updated: Wed, 20-Jun-2018 12:56am CDT
Mist, Overcast
Mist, Overcast
 Wind from WNW
Wind: WNW 7 mph , 11 km/h
Temperature: 70°F , 21°C
Dew Point: 68°F , 20°C
Humidity: 94%
Barometer: 29.89 inHg , 1012.2 hPa
Summary: Mist
Clouds: Overcast
Visibility: 3 miles , 5 km
Cloud details: Mostly cloudy 500 ft
Overcast 6500 ft
2018/06/20 05:56 KVPZ 200556Z AUTO 29006KT 3SM BR BKN005 OVC065 21/20 A2989 RMK AO2 LTG DSNT N SLP115 T02110200 10239 20211 403060200 50008